sensor_id;sensor_type;location;lat;lon;timestamp;P1;durP1;ratioP1;P2;durP2;ratioP2
62696;SDS011;48761;42.680;23.312;2023-04-16T00:01:59;6.03;;;2.97;;
62696;SDS011;48761;42.680;23.312;2023-04-16T00:04:25;7.20;;;3.13;;
62696;SDS011;48761;42.680;23.312;2023-04-16T00:06:51;7.00;;;3.15;;
62696;SDS011;48761;42.680;23.312;2023-04-16T00:09:17;6.78;;;3.05;;
62696;SDS011;48761;42.680;23.312;2023-04-16T00:11:42;10.13;;;3.13;;
62696;SDS011;48761;42.680;23.312;2023-04-16T00:14:08;5.65;;;2.72;;
62696;SDS011;48761;42.680;23.312;2023-04-16T00:16:34;6.03;;;2.63;;
62696;SDS011;48761;42.680;23.312;2023-04-16T00:19:00;5.03;;;2.80;;
62696;SDS011;48761;42.680;23.312;2023-04-16T00:21:26;6.75;;;3.10;;
62696;SDS011;48761;42.680;23.312;2023-04-16T00:23:52;7.68;;;3.13;;
62696;SDS011;48761;42.680;23.312;2023-04-16T00:26:18;5.00;;;2.78;;
62696;SDS011;48761;42.680;23.312;2023-04-16T00:28:44;5.13;;;2.88;;
62696;SDS011;48761;42.680;23.312;2023-04-16T00:31:10;6.63;;;2.97;;
62696;SDS011;48761;42.680;23.312;2023-04-16T00:33:36;6.93;;;3.15;;
62696;SDS011;48761;42.680;23.312;2023-04-16T00:36:02;7.93;;;3.10;;
62696;SDS011;48761;42.680;23.312;2023-04-16T00:38:28;6.28;;;3.15;;
62696;SDS011;48761;42.680;23.312;2023-04-16T00:40:55;5.93;;;3.10;;
62696;SDS011;48761;42.680;23.312;2023-04-16T00:43:21;5.20;;;3.22;;
62696;SDS011;48761;42.680;23.312;2023-04-16T00:45:48;7.43;;;3.78;;
62696;SDS011;48761;42.680;23.312;2023-04-16T00:48:14;5.13;;;3.53;;
62696;SDS011;48761;42.680;23.312;2023-04-16T00:50:41;8.95;;;4.28;;
62696;SDS011;48761;42.680;23.312;2023-04-16T00:53:07;10.60;;;5.75;;
62696;SDS011;48761;42.680;23.312;2023-04-16T00:55:33;13.00;;;5.57;;
62696;SDS011;48761;42.680;23.312;2023-04-16T00:57:59;13.88;;;6.15;;
62696;SDS011;48761;42.680;23.312;2023-04-16T01:00:25;15.82;;;6.90;;
62696;SDS011;48761;42.680;23.312;2023-04-16T01:02:52;14.43;;;6.15;;
62696;SDS011;48761;42.680;23.312;2023-04-16T01:05:19;12.35;;;5.38;;
62696;SDS011;48761;42.680;23.312;2023-04-16T01:07:45;11.15;;;5.13;;
62696;SDS011;48761;42.680;23.312;2023-04-16T01:10:11;15.27;;;5.78;;
62696;SDS011;48761;42.680;23.312;2023-04-16T01:12:37;10.38;;;4.93;;
62696;SDS011;48761;42.680;23.312;2023-04-16T01:15:03;13.52;;;4.93;;
62696;SDS011;48761;42.680;23.312;2023-04-16T01:17:29;9.20;;;4.65;;
62696;SDS011;48761;42.680;23.312;2023-04-16T01:19:58;11.80;;;4.72;;
62696;SDS011;48761;42.680;23.312;2023-04-16T01:22:26;10.32;;;4.85;;
62696;SDS011;48761;42.680;23.312;2023-04-16T01:24:52;12.43;;;4.63;;
62696;SDS011;48761;42.680;23.312;2023-04-16T01:27:18;10.48;;;4.60;;
62696;SDS011;48761;42.680;23.312;2023-04-16T01:29:44;10.38;;;4.75;;
62696;SDS011;48761;42.680;23.312;2023-04-16T01:32:10;8.23;;;3.90;;
62696;SDS011;48761;42.680;23.312;2023-04-16T01:34:36;9.93;;;4.05;;
62696;SDS011;48761;42.680;23.312;2023-04-16T01:37:02;7.53;;;3.78;;
62696;SDS011;48761;42.680;23.312;2023-04-16T01:39:28;9.73;;;4.20;;
62696;SDS011;48761;42.680;23.312;2023-04-16T01:41:55;7.05;;;3.78;;
62696;SDS011;48761;42.680;23.312;2023-04-16T01:44:21;9.13;;;4.25;;
62696;SDS011;48761;42.680;23.312;2023-04-16T01:46:47;8.27;;;3.78;;
62696;SDS011;48761;42.680;23.312;2023-04-16T01:49:13;11.02;;;4.03;;
62696;SDS011;48761;42.680;23.312;2023-04-16T01:51:40;10.65;;;4.10;;
62696;SDS011;48761;42.680;23.312;2023-04-16T01:54:05;11.02;;;4.05;;
62696;SDS011;48761;42.680;23.312;2023-04-16T01:56:31;8.05;;;3.92;;
62696;SDS011;48761;42.680;23.312;2023-04-16T01:58:58;7.43;;;4.03;;
62696;SDS011;48761;42.680;23.312;2023-04-16T02:01:23;9.98;;;3.88;;
62696;SDS011;48761;42.680;23.312;2023-04-16T02:03:50;8.98;;;3.85;;
62696;SDS011;48761;42.680;23.312;2023-04-16T02:06:16;6.97;;;3.65;;
62696;SDS011;48761;42.680;23.312;2023-04-16T02:08:42;8.88;;;4.25;;
62696;SDS011;48761;42.680;23.312;2023-04-16T02:11:08;7.28;;;3.70;;
62696;SDS011;48761;42.680;23.312;2023-04-16T02:13:34;12.18;;;4.68;;
62696;SDS011;48761;42.680;23.312;2023-04-16T02:16:00;11.52;;;4.35;;
62696;SDS011;48761;42.680;23.312;2023-04-16T02:18:26;9.60;;;4.75;;
62696;SDS011;48761;42.680;23.312;2023-04-16T02:20:52;11.38;;;5.63;;
62696;SDS011;48761;42.680;23.312;2023-04-16T02:23:17;13.13;;;5.88;;
62696;SDS011;48761;42.680;23.312;2023-04-16T02:25:44;12.75;;;5.75;;
62696;SDS011;48761;42.680;23.312;2023-04-16T02:28:12;12.85;;;5.25;;
62696;SDS011;48761;42.680;23.312;2023-04-16T02:30:39;11.43;;;5.50;;
62696;SDS011;48761;42.680;23.312;2023-04-16T02:33:06;13.57;;;5.80;;
62696;SDS011;48761;42.680;23.312;2023-04-16T02:35:33;14.90;;;5.80;;
62696;SDS011;48761;42.680;23.312;2023-04-16T02:38:00;12.57;;;5.35;;
62696;SDS011;48761;42.680;23.312;2023-04-16T02:40:26;10.52;;;5.28;;
62696;SDS011;48761;42.680;23.312;2023-04-16T02:42:53;13.10;;;5.60;;
62696;SDS011;48761;42.680;23.312;2023-04-16T02:45:19;12.77;;;5.55;;
62696;SDS011;48761;42.680;23.312;2023-04-16T02:47:46;11.77;;;5.78;;
62696;SDS011;48761;42.680;23.312;2023-04-16T02:50:12;16.63;;;5.60;;
62696;SDS011;48761;42.680;23.312;2023-04-16T02:52:38;9.75;;;5.40;;
62696;SDS011;48761;42.680;23.312;2023-04-16T02:55:04;8.60;;;4.15;;
62696;SDS011;48761;42.680;23.312;2023-04-16T02:57:32;9.05;;;3.90;;
62696;SDS011;48761;42.680;23.312;2023-04-16T02:59:58;7.05;;;3.60;;
62696;SDS011;48761;42.680;23.312;2023-04-16T03:02:24;9.88;;;4.25;;
62696;SDS011;48761;42.680;23.312;2023-04-16T03:04:50;6.88;;;3.10;;
62696;SDS011;48761;42.680;23.312;2023-04-16T03:07:16;7.93;;;3.47;;
62696;SDS011;48761;42.680;23.312;2023-04-16T03:09:42;8.48;;;3.17;;
62696;SDS011;48761;42.680;23.312;2023-04-16T03:12:07;6.28;;;3.15;;
62696;SDS011;48761;42.680;23.312;2023-04-16T03:14:33;5.78;;;3.38;;
62696;SDS011;48761;42.680;23.312;2023-04-16T03:16:59;7.43;;;3.08;;
62696;SDS011;48761;42.680;23.312;2023-04-16T03:19:25;7.70;;;3.10;;
62696;SDS011;48761;42.680;23.312;2023-04-16T03:21:51;7.30;;;2.97;;
62696;SDS011;48761;42.680;23.312;2023-04-16T03:24:17;4.43;;;2.70;;
62696;SDS011;48761;42.680;23.312;2023-04-16T03:26:43;6.03;;;2.80;;
62696;SDS011;48761;42.680;23.312;2023-04-16T03:29:09;8.10;;;3.22;;
62696;SDS011;48761;42.680;23.312;2023-04-16T03:31:35;7.70;;;3.65;;
62696;SDS011;48761;42.680;23.312;2023-04-16T03:34:01;4.65;;;3.00;;
62696;SDS011;48761;42.680;23.312;2023-04-16T03:36:27;5.00;;;2.75;;
62696;SDS011;48761;42.680;23.312;2023-04-16T03:38:53;7.90;;;3.15;;
62696;SDS011;48761;42.680;23.312;2023-04-16T03:41:19;6.63;;;3.40;;
62696;SDS011;48761;42.680;23.312;2023-04-16T03:43:44;8.20;;;3.92;;
62696;SDS011;48761;42.680;23.312;2023-04-16T03:46:10;10.43;;;4.00;;
62696;SDS011;48761;42.680;23.312;2023-04-16T03:48:36;8.85;;;3.63;;
62696;SDS011;48761;42.680;23.312;2023-04-16T03:51:02;8.80;;;3.70;;
62696;SDS011;48761;42.680;23.312;2023-04-16T03:53:28;7.88;;;4.65;;
62696;SDS011;48761;42.680;23.312;2023-04-16T03:55:54;9.98;;;5.43;;
62696;SDS011;48761;42.680;23.312;2023-04-16T03:58:20;15.85;;;6.55;;
62696;SDS011;48761;42.680;23.312;2023-04-16T04:00:46;16.38;;;6.70;;
62696;SDS011;48761;42.680;23.312;2023-04-16T04:03:12;11.43;;;5.13;;
62696;SDS011;48761;42.680;23.312;2023-04-16T04:05:39;10.38;;;5.18;;
62696;SDS011;48761;42.680;23.312;2023-04-16T04:08:05;11.23;;;5.68;;
62696;SDS011;48761;42.680;23.312;2023-04-16T04:10:32;13.27;;;5.50;;
62696;SDS011;48761;42.680;23.312;2023-04-16T04:12:59;14.00;;;6.10;;
62696;SDS011;48761;42.680;23.312;2023-04-16T04:15:26;12.02;;;5.55;;
62696;SDS011;48761;42.680;23.312;2023-04-16T04:17:51;12.82;;;5.82;;
62696;SDS011;48761;42.680;23.312;2023-04-16T04:20:17;16.73;;;6.53;;
62696;SDS011;48761;42.680;23.312;2023-04-16T04:22:43;55.75;;;33.45;;
62696;SDS011;48761;42.680;23.312;2023-04-16T04:25:09;32.75;;;18.70;;
62696;SDS011;48761;42.680;23.312;2023-04-16T04:27:35;13.82;;;8.15;;
62696;SDS011;48761;42.680;23.312;2023-04-16T04:30:02;15.15;;;8.98;;
62696;SDS011;48761;42.680;23.312;2023-04-16T04:32:28;13.65;;;6.05;;
62696;SDS011;48761;42.680;23.312;2023-04-16T04:34:54;11.48;;;5.43;;
62696;SDS011;48761;42.680;23.312;2023-04-16T04:37:20;12.50;;;5.90;;
62696;SDS011;48761;42.680;23.312;2023-04-16T04:39:46;14.10;;;5.88;;
62696;SDS011;48761;42.680;23.312;2023-04-16T04:42:12;13.68;;;6.10;;
62696;SDS011;48761;42.680;23.312;2023-04-16T04:44:38;12.50;;;5.32;;
62696;SDS011;48761;42.680;23.312;2023-04-16T04:47:03;13.20;;;6.30;;
62696;SDS011;48761;42.680;23.312;2023-04-16T04:49:30;11.13;;;5.88;;
62696;SDS011;48761;42.680;23.312;2023-04-16T04:51:56;15.27;;;6.32;;
62696;SDS011;48761;42.680;23.312;2023-04-16T04:54:22;12.15;;;5.57;;
62696;SDS011;48761;42.680;23.312;2023-04-16T04:56:48;11.20;;;5.68;;
62696;SDS011;48761;42.680;23.312;2023-04-16T04:59:14;14.20;;;6.25;;
62696;SDS011;48761;42.680;23.312;2023-04-16T05:01:39;13.00;;;5.78;;
62696;SDS011;48761;42.680;23.312;2023-04-16T05:04:05;13.57;;;5.53;;
62696;SDS011;48761;42.680;23.312;2023-04-16T05:06:31;12.52;;;5.80;;
62696;SDS011;48761;42.680;23.312;2023-04-16T05:08:57;13.02;;;6.40;;
62696;SDS011;48761;42.680;23.312;2023-04-16T05:11:23;16.02;;;7.18;;
62696;SDS011;48761;42.680;23.312;2023-04-16T05:13:49;15.05;;;6.50;;
62696;SDS011;48761;42.680;23.312;2023-04-16T05:16:15;18.33;;;6.30;;
62696;SDS011;48761;42.680;23.312;2023-04-16T05:18:41;13.02;;;6.53;;
62696;SDS011;48761;42.680;23.312;2023-04-16T05:21:07;14.10;;;6.60;;
62696;SDS011;48761;42.680;23.312;2023-04-16T05:23:33;12.70;;;5.97;;
62696;SDS011;48761;42.680;23.312;2023-04-16T05:25:59;12.35;;;6.35;;
62696;SDS011;48761;42.680;23.312;2023-04-16T05:28:24;14.25;;;6.47;;
62696;SDS011;48761;42.680;23.312;2023-04-16T05:30:50;12.15;;;5.95;;
62696;SDS011;48761;42.680;23.312;2023-04-16T05:33:16;9.60;;;5.50;;
62696;SDS011;48761;42.680;23.312;2023-04-16T05:35:42;9.48;;;4.32;;
62696;SDS011;48761;42.680;23.312;2023-04-16T05:38:08;8.93;;;4.97;;
62696;SDS011;48761;42.680;23.312;2023-04-16T05:40:34;7.70;;;3.60;;
62696;SDS011;48761;42.680;23.312;2023-04-16T05:43:00;7.97;;;3.95;;
62696;SDS011;48761;42.680;23.312;2023-04-16T05:45:26;8.23;;;4.25;;
62696;SDS011;48761;42.680;23.312;2023-04-16T05:47:52;7.82;;;4.30;;
62696;SDS011;48761;42.680;23.312;2023-04-16T05:50:18;9.88;;;4.47;;
62696;SDS011;48761;42.680;23.312;2023-04-16T05:52:44;7.90;;;4.13;;
62696;SDS011;48761;42.680;23.312;2023-04-16T05:55:10;11.40;;;7.93;;
62696;SDS011;48761;42.680;23.312;2023-04-16T05:57:35;12.00;;;7.35;;
62696;SDS011;48761;42.680;23.312;2023-04-16T06:00:01;10.73;;;5.10;;
62696;SDS011;48761;42.680;23.312;2023-04-16T06:02:27;11.80;;;7.20;;
62696;SDS011;48761;42.680;23.312;2023-04-16T06:04:53;16.88;;;9.25;;
62696;SDS011;48761;42.680;23.312;2023-04-16T06:07:19;11.90;;;6.22;;
62696;SDS011;48761;42.680;23.312;2023-04-16T06:09:45;12.68;;;6.75;;
62696;SDS011;48761;42.680;23.312;2023-04-16T06:12:11;15.55;;;7.18;;
62696;SDS011;48761;42.680;23.312;2023-04-16T06:14:37;13.50;;;6.35;;
62696;SDS011;48761;42.680;23.312;2023-04-16T06:17:03;12.32;;;6.05;;
62696;SDS011;48761;42.680;23.312;2023-04-16T06:19:29;10.45;;;5.45;;
62696;SDS011;48761;42.680;23.312;2023-04-16T06:21:55;14.55;;;6.05;;
62696;SDS011;48761;42.680;23.312;2023-04-16T06:24:21;12.48;;;5.05;;
62696;SDS011;48761;42.680;23.312;2023-04-16T06:26:47;15.63;;;5.95;;
62696;SDS011;48761;42.680;23.312;2023-04-16T06:29:13;11.82;;;5.43;;
62696;SDS011;48761;42.680;23.312;2023-04-16T06:31:39;18.95;;;10.38;;
62696;SDS011;48761;42.680;23.312;2023-04-16T06:34:05;13.32;;;6.25;;
62696;SDS011;48761;42.680;23.312;2023-04-16T06:36:31;14.60;;;6.75;;
62696;SDS011;48761;42.680;23.312;2023-04-16T06:38:57;9.93;;;5.30;;
62696;SDS011;48761;42.680;23.312;2023-04-16T06:41:23;12.52;;;6.18;;
62696;SDS011;48761;42.680;23.312;2023-04-16T06:43:49;11.02;;;5.32;;
62696;SDS011;48761;42.680;23.312;2023-04-16T06:46:15;10.52;;;5.57;;
62696;SDS011;48761;42.680;23.312;2023-04-16T06:48:40;10.77;;;5.07;;
62696;SDS011;48761;42.680;23.312;2023-04-16T06:51:06;13.77;;;7.65;;
62696;SDS011;48761;42.680;23.312;2023-04-16T06:53:32;8.85;;;4.78;;
62696;SDS011;48761;42.680;23.312;2023-04-16T06:55:59;16.65;;;8.93;;
62696;SDS011;48761;42.680;23.312;2023-04-16T06:58:25;12.15;;;5.57;;
62696;SDS011;48761;42.680;23.312;2023-04-16T07:00:50;9.77;;;4.88;;
62696;SDS011;48761;42.680;23.312;2023-04-16T07:03:16;12.30;;;4.95;;
62696;SDS011;48761;42.680;23.312;2023-04-16T07:05:42;10.80;;;5.63;;
62696;SDS011;48761;42.680;23.312;2023-04-16T07:08:08;11.50;;;4.78;;
62696;SDS011;48761;42.680;23.312;2023-04-16T07:10:34;10.85;;;5.97;;
62696;SDS011;48761;42.680;23.312;2023-04-16T07:13:00;12.50;;;4.93;;
62696;SDS011;48761;42.680;23.312;2023-04-16T07:15:26;11.75;;;4.13;;
62696;SDS011;48761;42.680;23.312;2023-04-16T07:17:53;8.52;;;4.72;;
62696;SDS011;48761;42.680;23.312;2023-04-16T07:20:19;10.45;;;4.97;;
62696;SDS011;48761;42.680;23.312;2023-04-16T07:22:45;11.73;;;5.97;;
62696;SDS011;48761;42.680;23.312;2023-04-16T07:25:11;8.13;;;4.25;;
62696;SDS011;48761;42.680;23.312;2023-04-16T07:27:37;11.25;;;5.00;;
62696;SDS011;48761;42.680;23.312;2023-04-16T07:30:03;9.02;;;4.55;;
62696;SDS011;48761;42.680;23.312;2023-04-16T07:32:29;5.30;;;3.63;;
62696;SDS011;48761;42.680;23.312;2023-04-16T07:34:55;8.30;;;3.85;;
62696;SDS011;48761;42.680;23.312;2023-04-16T07:37:21;9.15;;;4.78;;
62696;SDS011;48761;42.680;23.312;2023-04-16T07:39:47;9.68;;;4.47;;
62696;SDS011;48761;42.680;23.312;2023-04-16T07:42:12;10.70;;;4.18;;
62696;SDS011;48761;42.680;23.312;2023-04-16T07:44:38;10.38;;;5.00;;
62696;SDS011;48761;42.680;23.312;2023-04-16T07:47:04;9.77;;;4.53;;
62696;SDS011;48761;42.680;23.312;2023-04-16T07:49:30;8.48;;;4.18;;
62696;SDS011;48761;42.680;23.312;2023-04-16T07:51:56;14.00;;;5.10;;
62696;SDS011;48761;42.680;23.312;2023-04-16T07:54:22;8.32;;;4.85;;
62696;SDS011;48761;42.680;23.312;2023-04-16T07:56:48;8.65;;;4.55;;
62696;SDS011;48761;42.680;23.312;2023-04-16T07:59:14;9.07;;;4.82;;
62696;SDS011;48761;42.680;23.312;2023-04-16T08:01:40;13.27;;;4.53;;
62696;SDS011;48761;42.680;23.312;2023-04-16T08:04:06;10.07;;;5.15;;
62696;SDS011;48761;42.680;23.312;2023-04-16T08:06:32;6.75;;;4.07;;
62696;SDS011;48761;42.680;23.312;2023-04-16T08:08:57;10.48;;;4.45;;
62696;SDS011;48761;42.680;23.312;2023-04-16T08:11:23;9.82;;;4.78;;
62696;SDS011;48761;42.680;23.312;2023-04-16T08:13:49;10.25;;;4.40;;
62696;SDS011;48761;42.680;23.312;2023-04-16T08:16:15;9.75;;;5.00;;
62696;SDS011;48761;42.680;23.312;2023-04-16T08:18:41;9.55;;;4.15;;
62696;SDS011;48761;42.680;23.312;2023-04-16T08:21:07;10.10;;;4.45;;
62696;SDS011;48761;42.680;23.312;2023-04-16T08:23:33;7.72;;;4.18;;
62696;SDS011;48761;42.680;23.312;2023-04-16T08:25:59;7.40;;;3.88;;
62696;SDS011;48761;42.680;23.312;2023-04-16T08:28:25;10.95;;;4.13;;
62696;SDS011;48761;42.680;23.312;2023-04-16T08:30:51;9.98;;;4.00;;
62696;SDS011;48761;42.680;23.312;2023-04-16T08:33:17;7.03;;;3.70;;
62696;SDS011;48761;42.680;23.312;2023-04-16T08:35:43;8.40;;;3.10;;
62696;SDS011;48761;42.680;23.312;2023-04-16T08:38:09;6.63;;;3.90;;
62696;SDS011;48761;42.680;23.312;2023-04-16T08:40:37;7.25;;;2.83;;
62696;SDS011;48761;42.680;23.312;2023-04-16T08:43:04;8.05;;;3.35;;
62696;SDS011;48761;42.680;23.312;2023-04-16T08:45:34;7.95;;;3.63;;
62696;SDS011;48761;42.680;23.312;2023-04-16T08:48:00;8.50;;;3.35;;
62696;SDS011;48761;42.680;23.312;2023-04-16T08:50:29;6.32;;;3.78;;
62696;SDS011;48761;42.680;23.312;2023-04-16T08:52:58;12.93;;;4.10;;
62696;SDS011;48761;42.680;23.312;2023-04-16T08:55:30;6.38;;;3.22;;
62696;SDS011;48761;42.680;23.312;2023-04-16T08:58:00;7.57;;;3.03;;
62696;SDS011;48761;42.680;23.312;2023-04-16T09:00:32;8.75;;;3.13;;
62696;SDS011;48761;42.680;23.312;2023-04-16T09:03:00;7.68;;;2.67;;
62696;SDS011;48761;42.680;23.312;2023-04-16T09:05:27;5.85;;;2.60;;
62696;SDS011;48761;42.680;23.312;2023-04-16T09:07:54;4.43;;;2.92;;
62696;SDS011;48761;42.680;23.312;2023-04-16T09:10:19;5.38;;;2.63;;
62696;SDS011;48761;42.680;23.312;2023-04-16T09:12:46;5.65;;;2.75;;
62696;SDS011;48761;42.680;23.312;2023-04-16T09:15:12;9.90;;;2.95;;
62696;SDS011;48761;42.680;23.312;2023-04-16T09:17:38;10.52;;;4.57;;
62696;SDS011;48761;42.680;23.312;2023-04-16T09:20:05;7.32;;;3.22;;
62696;SDS011;48761;42.680;23.312;2023-04-16T09:22:36;7.18;;;2.90;;
62696;SDS011;48761;42.680;23.312;2023-04-16T09:25:02;6.45;;;3.00;;
62696;SDS011;48761;42.680;23.312;2023-04-16T09:27:29;6.88;;;3.15;;
62696;SDS011;48761;42.680;23.312;2023-04-16T09:29:55;4.80;;;2.97;;
62696;SDS011;48761;42.680;23.312;2023-04-16T09:32:25;6.10;;;2.95;;
62696;SDS011;48761;42.680;23.312;2023-04-16T09:37:25;16.20;;;10.50;;
62696;SDS011;48761;42.680;23.312;2023-04-16T09:42:26;6.35;;;3.60;;
62696;SDS011;48761;42.680;23.312;2023-04-16T09:44:54;7.40;;;2.90;;
62696;SDS011;48761;42.680;23.312;2023-04-16T09:47:20;5.55;;;2.80;;
62696;SDS011;48761;42.680;23.312;2023-04-16T09:49:47;7.28;;;3.00;;
62696;SDS011;48761;42.680;23.312;2023-04-16T09:52:20;6.05;;;2.70;;
62696;SDS011;48761;42.680;23.312;2023-04-16T09:54:51;7.10;;;2.90;;
62696;SDS011;48761;42.680;23.312;2023-04-16T09:57:22;7.28;;;2.60;;
62696;SDS011;48761;42.680;23.312;2023-04-16T09:59:52;7.10;;;2.17;;
62696;SDS011;48761;42.680;23.312;2023-04-16T10:02:19;8.73;;;2.88;;
62696;SDS011;48761;42.680;23.312;2023-04-16T10:04:49;7.70;;;3.08;;
62696;SDS011;48761;42.680;23.312;2023-04-16T10:07:16;5.95;;;2.85;;
62696;SDS011;48761;42.680;23.312;2023-04-16T10:09:43;8.07;;;2.70;;
62696;SDS011;48761;42.680;23.312;2023-04-16T10:12:09;11.48;;;4.47;;
62696;SDS011;48761;42.680;23.312;2023-04-16T10:14:35;9.90;;;3.28;;
62696;SDS011;48761;42.680;23.312;2023-04-16T10:17:02;9.27;;;3.00;;
62696;SDS011;48761;42.680;23.312;2023-04-16T10:19:28;7.80;;;3.17;;
62696;SDS011;48761;42.680;23.312;2023-04-16T10:21:54;6.30;;;3.00;;
62696;SDS011;48761;42.680;23.312;2023-04-16T10:24:20;10.50;;;2.95;;
62696;SDS011;48761;42.680;23.312;2023-04-16T10:26:47;9.48;;;4.32;;
62696;SDS011;48761;42.680;23.312;2023-04-16T10:29:15;7.65;;;4.10;;
62696;SDS011;48761;42.680;23.312;2023-04-16T10:31:42;7.82;;;2.65;;
62696;SDS011;48761;42.680;23.312;2023-04-16T10:34:09;9.10;;;2.75;;
62696;SDS011;48761;42.680;23.312;2023-04-16T10:36:35;6.32;;;2.60;;
62696;SDS011;48761;42.680;23.312;2023-04-16T10:39:02;3.63;;;2.30;;
62696;SDS011;48761;42.680;23.312;2023-04-16T10:41:30;6.65;;;2.70;;
62696;SDS011;48761;42.680;23.312;2023-04-16T10:44:04;6.05;;;2.70;;
62696;SDS011;48761;42.680;23.312;2023-04-16T10:46:32;6.47;;;2.38;;
62696;SDS011;48761;42.680;23.312;2023-04-16T10:49:01;7.60;;;2.85;;
62696;SDS011;48761;42.680;23.312;2023-04-16T10:51:37;6.88;;;2.63;;
62696;SDS011;48761;42.680;23.312;2023-04-16T10:56:35;5.72;;;2.65;;
62696;SDS011;48761;42.680;23.312;2023-04-16T10:59:04;9.02;;;2.85;;
62696;SDS011;48761;42.680;23.312;2023-04-16T11:01:44;5.72;;;3.22;;
62696;SDS011;48761;42.680;23.312;2023-04-16T11:07:05;4.68;;;2.33;;
62696;SDS011;48761;42.680;23.312;2023-04-16T11:12:06;5.18;;;2.67;;
62696;SDS011;48761;42.680;23.312;2023-04-16T11:14:36;6.55;;;2.60;;
62696;SDS011;48761;42.680;23.312;2023-04-16T11:17:02;5.20;;;2.95;;
62696;SDS011;48761;42.680;23.312;2023-04-16T11:19:28;8.65;;;3.00;;
62696;SDS011;48761;42.680;23.312;2023-04-16T11:21:54;7.47;;;2.83;;
62696;SDS011;48761;42.680;23.312;2023-04-16T11:24:21;6.43;;;2.70;;
62696;SDS011;48761;42.680;23.312;2023-04-16T11:26:49;5.95;;;2.80;;
62696;SDS011;48761;42.680;23.312;2023-04-16T11:29:16;4.47;;;2.60;;
62696;SDS011;48761;42.680;23.312;2023-04-16T11:31:48;9.93;;;2.75;;
62696;SDS011;48761;42.680;23.312;2023-04-16T11:34:18;7.80;;;2.72;;
62696;SDS011;48761;42.680;23.312;2023-04-16T11:36:48;6.93;;;2.80;;
62696;SDS011;48761;42.680;23.312;2023-04-16T11:41:47;5.53;;;2.60;;
62696;SDS011;48761;42.680;23.312;2023-04-16T11:44:23;4.75;;;2.42;;
62696;SDS011;48761;42.680;23.312;2023-04-16T11:46:51;5.22;;;2.35;;
62696;SDS011;48761;42.680;23.312;2023-04-16T11:49:29;4.88;;;2.30;;
62696;SDS011;48761;42.680;23.312;2023-04-16T11:51:56;5.85;;;2.20;;
62696;SDS011;48761;42.680;23.312;2023-04-16T11:54:23;6.95;;;2.47;;
62696;SDS011;48761;42.680;23.312;2023-04-16T11:56:50;5.22;;;2.35;;
62696;SDS011;48761;42.680;23.312;2023-04-16T11:59:18;4.07;;;2.20;;
62696;SDS011;48761;42.680;23.312;2023-04-16T12:01:46;6.03;;;2.40;;
62696;SDS011;48761;42.680;23.312;2023-04-16T12:04:14;3.05;;;2.03;;
62696;SDS011;48761;42.680;23.312;2023-04-16T12:09:43;5.68;;;2.00;;
62696;SDS011;48761;42.680;23.312;2023-04-16T12:12:25;4.55;;;1.80;;
62696;SDS011;48761;42.680;23.312;2023-04-16T12:14:52;4.25;;;1.60;;
62696;SDS011;48761;42.680;23.312;2023-04-16T12:17:22;5.85;;;2.15;;
62696;SDS011;48761;42.680;23.312;2023-04-16T12:19:51;5.72;;;1.95;;
62696;SDS011;48761;42.680;23.312;2023-04-16T12:22:30;3.63;;;1.92;;
62696;SDS011;48761;42.680;23.312;2023-04-16T12:24:58;3.63;;;1.77;;
62696;SDS011;48761;42.680;23.312;2023-04-16T12:27:39;4.35;;;1.80;;
62696;SDS011;48761;42.680;23.312;2023-04-16T12:30:15;4.38;;;1.80;;
62696;SDS011;48761;42.680;23.312;2023-04-16T12:32:43;4.45;;;1.98;;
62696;SDS011;48761;42.680;23.312;2023-04-16T12:35:11;5.10;;;2.17;;
62696;SDS011;48761;42.680;23.312;2023-04-16T12:37:37;5.72;;;2.15;;
62696;SDS011;48761;42.680;23.312;2023-04-16T12:40:04;4.65;;;1.75;;
62696;SDS011;48761;42.680;23.312;2023-04-16T12:42:30;5.00;;;2.45;;
62696;SDS011;48761;42.680;23.312;2023-04-16T12:44:56;7.72;;;2.30;;
62696;SDS011;48761;42.680;23.312;2023-04-16T12:47:22;6.65;;;2.70;;
62696;SDS011;48761;42.680;23.312;2023-04-16T12:49:48;5.55;;;2.40;;
62696;SDS011;48761;42.680;23.312;2023-04-16T12:52:14;5.03;;;2.50;;
62696;SDS011;48761;42.680;23.312;2023-04-16T12:54:40;7.40;;;2.63;;
62696;SDS011;48761;42.680;23.312;2023-04-16T12:57:06;5.65;;;2.22;;
62696;SDS011;48761;42.680;23.312;2023-04-16T12:59:32;7.72;;;2.40;;
62696;SDS011;48761;42.680;23.312;2023-04-16T13:01:59;4.22;;;2.30;;
62696;SDS011;48761;42.680;23.312;2023-04-16T13:04:25;6.30;;;3.00;;
62696;SDS011;48761;42.680;23.312;2023-04-16T13:06:51;6.85;;;3.38;;
62696;SDS011;48761;42.680;23.312;2023-04-16T13:09:17;10.02;;;3.33;;
62696;SDS011;48761;42.680;23.312;2023-04-16T13:11:43;10.15;;;3.35;;
62696;SDS011;48761;42.680;23.312;2023-04-16T13:14:09;7.97;;;3.17;;
62696;SDS011;48761;42.680;23.312;2023-04-16T13:16:35;10.23;;;3.78;;
62696;SDS011;48761;42.680;23.312;2023-04-16T13:19:01;6.00;;;2.90;;
62696;SDS011;48761;42.680;23.312;2023-04-16T13:21:27;11.27;;;3.00;;
62696;SDS011;48761;42.680;23.312;2023-04-16T13:23:53;5.47;;;3.00;;
62696;SDS011;48761;42.680;23.312;2023-04-16T13:26:19;4.78;;;2.10;;
62696;SDS011;48761;42.680;23.312;2023-04-16T13:28:45;7.10;;;2.30;;
62696;SDS011;48761;42.680;23.312;2023-04-16T13:31:11;6.32;;;2.25;;
62696;SDS011;48761;42.680;23.312;2023-04-16T13:33:37;5.82;;;2.00;;
62696;SDS011;48761;42.680;23.312;2023-04-16T13:36:03;5.53;;;2.15;;
62696;SDS011;48761;42.680;23.312;2023-04-16T13:38:29;5.72;;;2.17;;
62696;SDS011;48761;42.680;23.312;2023-04-16T13:40:55;5.40;;;1.90;;
62696;SDS011;48761;42.680;23.312;2023-04-16T13:43:21;5.28;;;1.92;;
62696;SDS011;48761;42.680;23.312;2023-04-16T13:45:47;5.95;;;1.85;;
62696;SDS011;48761;42.680;23.312;2023-04-16T13:48:12;2.78;;;1.50;;
62696;SDS011;48761;42.680;23.312;2023-04-16T13:50:38;4.50;;;1.83;;
62696;SDS011;48761;42.680;23.312;2023-04-16T13:53:04;4.82;;;1.50;;
62696;SDS011;48761;42.680;23.312;2023-04-16T13:55:30;5.70;;;2.00;;
62696;SDS011;48761;42.680;23.312;2023-04-16T13:57:56;9.25;;;1.80;;
62696;SDS011;48761;42.680;23.312;2023-04-16T14:00:22;3.72;;;1.73;;
62696;SDS011;48761;42.680;23.312;2023-04-16T14:02:50;4.75;;;1.83;;
62696;SDS011;48761;42.680;23.312;2023-04-16T14:05:17;6.63;;;2.20;;
62696;SDS011;48761;42.680;23.312;2023-04-16T14:07:42;3.35;;;1.95;;
62696;SDS011;48761;42.680;23.312;2023-04-16T14:10:09;4.60;;;2.33;;
62696;SDS011;48761;42.680;23.312;2023-04-16T14:12:35;4.10;;;2.30;;
62696;SDS011;48761;42.680;23.312;2023-04-16T14:15:01;4.72;;;2.42;;
62696;SDS011;48761;42.680;23.312;2023-04-16T14:17:27;9.82;;;4.90;;
62696;SDS011;48761;42.680;23.312;2023-04-16T14:19:53;4.72;;;2.30;;
62696;SDS011;48761;42.680;23.312;2023-04-16T14:22:19;3.72;;;2.22;;
62696;SDS011;48761;42.680;23.312;2023-04-16T14:24:45;3.63;;;2.80;;
62696;SDS011;48761;42.680;23.312;2023-04-16T14:27:11;4.30;;;2.03;;
62696;SDS011;48761;42.680;23.312;2023-04-16T14:29:37;3.17;;;2.00;;
62696;SDS011;48761;42.680;23.312;2023-04-16T14:32:03;4.78;;;2.38;;
62696;SDS011;48761;42.680;23.312;2023-04-16T14:34:29;10.80;;;6.32;;
62696;SDS011;48761;42.680;23.312;2023-04-16T14:36:55;6.93;;;2.80;;
62696;SDS011;48761;42.680;23.312;2023-04-16T14:39:21;3.72;;;2.55;;
62696;SDS011;48761;42.680;23.312;2023-04-16T14:41:47;15.40;;;8.07;;
62696;SDS011;48761;42.680;23.312;2023-04-16T14:44:13;4.90;;;3.25;;
62696;SDS011;48761;42.680;23.312;2023-04-16T14:46:39;6.20;;;3.53;;